sensor_id;sensor_type;location;lat;lon;timestamp;P1;durP1;ratioP1;P2;durP2;ratioP2
52926;SDS011;40783;49.710;8.842;2022-07-29T00:04:38;6.37;;;3.43;;
52926;SDS011;40783;49.710;8.842;2022-07-29T00:09:29;6.88;;;4.10;;
52926;SDS011;40783;49.710;8.842;2022-07-29T00:11:58;6.90;;;4.43;;
52926;SDS011;40783;49.710;8.842;2022-07-29T00:14:26;5.72;;;3.60;;
52926;SDS011;40783;49.710;8.842;2022-07-29T00:16:56;6.35;;;3.38;;
52926;SDS011;40783;49.710;8.842;2022-07-29T00:21:49;6.30;;;3.70;;
52926;SDS011;40783;49.710;8.842;2022-07-29T00:26:41;5.20;;;3.03;;
52926;SDS011;40783;49.710;8.842;2022-07-29T00:29:12;7.78;;;4.25;;
52926;SDS011;40783;49.710;8.842;2022-07-29T00:31:37;5.65;;;2.92;;
52926;SDS011;40783;49.710;8.842;2022-07-29T00:36:28;9.25;;;3.67;;
52926;SDS011;40783;49.710;8.842;2022-07-29T00:41:19;10.65;;;3.60;;
52926;SDS011;40783;49.710;8.842;2022-07-29T00:46:10;5.63;;;2.67;;
52926;SDS011;40783;49.710;8.842;2022-07-29T00:48:36;7.25;;;3.30;;
52926;SDS011;40783;49.710;8.842;2022-07-29T00:51:05;7.28;;;4.03;;
52926;SDS011;40783;49.710;8.842;2022-07-29T00:53:35;7.18;;;3.50;;
52926;SDS011;40783;49.710;8.842;2022-07-29T00:58:28;3.10;;;2.10;;
52926;SDS011;40783;49.710;8.842;2022-07-29T01:03:19;5.07;;;3.13;;
52926;SDS011;40783;49.710;8.842;2022-07-29T01:08:11;6.68;;;2.90;;
52926;SDS011;40783;49.710;8.842;2022-07-29T01:10:39;5.43;;;3.45;;
52926;SDS011;40783;49.710;8.842;2022-07-29T01:13:10;4.70;;;2.90;;
52926;SDS011;40783;49.710;8.842;2022-07-29T01:15:38;6.10;;;3.33;;
52926;SDS011;40783;49.710;8.842;2022-07-29T01:23:58;5.18;;;3.03;;
52926;SDS011;40783;49.710;8.842;2022-07-29T01:31:57;4.35;;;2.42;;
52926;SDS011;40783;49.710;8.842;2022-07-29T01:37:18;6.05;;;3.22;;
52926;SDS011;40783;49.710;8.842;2022-07-29T01:39:49;8.85;;;3.08;;
52926;SDS011;40783;49.710;8.842;2022-07-29T01:47:19;7.28;;;4.00;;
52926;SDS011;40783;49.710;8.842;2022-07-29T01:49:49;6.75;;;3.83;;
52926;SDS011;40783;49.710;8.842;2022-07-29T01:53:21;8.95;;;5.15;;
52926;SDS011;40783;49.710;8.842;2022-07-29T01:55:19;8.32;;;4.63;;
52926;SDS011;40783;49.710;8.842;2022-07-29T01:57:48;7.20;;;4.35;;
52926;SDS011;40783;49.710;8.842;2022-07-29T02:00:15;6.43;;;4.68;;
52926;SDS011;40783;49.710;8.842;2022-07-29T02:02:44;8.38;;;5.15;;
52926;SDS011;40783;49.710;8.842;2022-07-29T02:05:12;6.93;;;5.00;;
52926;SDS011;40783;49.710;8.842;2022-07-29T02:07:44;4.97;;;3.25;;
52926;SDS011;40783;49.710;8.842;2022-07-29T02:10:14;9.30;;;4.22;;
52926;SDS011;40783;49.710;8.842;2022-07-29T02:12:44;6.57;;;4.60;;
52926;SDS011;40783;49.710;8.842;2022-07-29T02:15:11;8.02;;;3.85;;
52926;SDS011;40783;49.710;8.842;2022-07-29T02:17:51;5.60;;;4.00;;
52926;SDS011;40783;49.710;8.842;2022-07-29T02:20:23;11.13;;;4.80;;
52926;SDS011;40783;49.710;8.842;2022-07-29T02:22:52;7.32;;;4.30;;
52926;SDS011;40783;49.710;8.842;2022-07-29T02:25:24;11.27;;;3.83;;
52926;SDS011;40783;49.710;8.842;2022-07-29T02:27:51;5.53;;;3.92;;
52926;SDS011;40783;49.710;8.842;2022-07-29T02:30:21;5.95;;;3.40;;
52926;SDS011;40783;49.710;8.842;2022-07-29T02:32:50;19.50;;;3.75;;
52926;SDS011;40783;49.710;8.842;2022-07-29T02:35:19;4.43;;;2.90;;
52926;SDS011;40783;49.710;8.842;2022-07-29T02:37:49;4.72;;;3.35;;
52926;SDS011;40783;49.710;8.842;2022-07-29T02:40:38;6.30;;;3.78;;
52926;SDS011;40783;49.710;8.842;2022-07-29T02:43:08;5.15;;;3.30;;
52926;SDS011;40783;49.710;8.842;2022-07-29T02:45:35;5.50;;;3.25;;
52926;SDS011;40783;49.710;8.842;2022-07-29T02:50:34;5.22;;;2.60;;
52926;SDS011;40783;49.710;8.842;2022-07-29T02:53:10;7.57;;;3.03;;
52926;SDS011;40783;49.710;8.842;2022-07-29T02:55:43;7.07;;;3.40;;
52926;SDS011;40783;49.710;8.842;2022-07-29T02:58:30;7.55;;;3.35;;
52926;SDS011;40783;49.710;8.842;2022-07-29T03:01:02;10.27;;;4.28;;
52926;SDS011;40783;49.710;8.842;2022-07-29T03:03:29;6.55;;;4.53;;
52926;SDS011;40783;49.710;8.842;2022-07-29T03:06:00;7.45;;;4.18;;
52926;SDS011;40783;49.710;8.842;2022-07-29T03:08:29;7.03;;;3.83;;
52926;SDS011;40783;49.710;8.842;2022-07-29T03:11:02;6.50;;;4.28;;
52926;SDS011;40783;49.710;8.842;2022-07-29T03:13:28;4.28;;;2.83;;
52926;SDS011;40783;49.710;8.842;2022-07-29T03:15:57;5.53;;;3.78;;
52926;SDS011;40783;49.710;8.842;2022-07-29T03:18:24;10.77;;;4.78;;
52926;SDS011;40783;49.710;8.842;2022-07-29T03:20:50;9.55;;;4.93;;
52926;SDS011;40783;49.710;8.842;2022-07-29T03:25:51;6.13;;;4.25;;
52926;SDS011;40783;49.710;8.842;2022-07-29T03:28:17;9.23;;;4.85;;
52926;SDS011;40783;49.710;8.842;2022-07-29T03:33:10;6.90;;;3.63;;
52926;SDS011;40783;49.710;8.842;2022-07-29T03:35:36;6.65;;;3.63;;
52926;SDS011;40783;49.710;8.842;2022-07-29T03:40:33;4.43;;;3.08;;
52926;SDS011;40783;49.710;8.842;2022-07-29T03:43:09;8.05;;;4.40;;
52926;SDS011;40783;49.710;8.842;2022-07-29T03:45:38;4.85;;;3.45;;
52926;SDS011;40783;49.710;8.842;2022-07-29T03:48:07;5.13;;;3.53;;
52926;SDS011;40783;49.710;8.842;2022-07-29T03:50:35;8.15;;;3.33;;
52926;SDS011;40783;49.710;8.842;2022-07-29T03:53:03;4.88;;;3.08;;
52926;SDS011;40783;49.710;8.842;2022-07-29T03:57:57;5.72;;;3.55;;
52926;SDS011;40783;49.710;8.842;2022-07-29T04:00:24;5.78;;;3.83;;
52926;SDS011;40783;49.710;8.842;2022-07-29T04:02:54;6.50;;;3.60;;
52926;SDS011;40783;49.710;8.842;2022-07-29T04:07:46;6.05;;;3.13;;
52926;SDS011;40783;49.710;8.842;2022-07-29T04:10:13;6.15;;;3.70;;
52926;SDS011;40783;49.710;8.842;2022-07-29T04:12:40;8.13;;;3.38;;
52926;SDS011;40783;49.710;8.842;2022-07-29T04:17:31;7.63;;;4.53;;
52926;SDS011;40783;49.710;8.842;2022-07-29T04:19:56;8.05;;;3.67;;
52926;SDS011;40783;49.710;8.842;2022-07-29T04:22:26;8.00;;;4.32;;
52926;SDS011;40783;49.710;8.842;2022-07-29T04:24:52;7.38;;;3.65;;
52926;SDS011;40783;49.710;8.842;2022-07-29T04:29:45;7.38;;;4.00;;
52926;SDS011;40783;49.710;8.842;2022-07-29T04:32:10;6.90;;;4.38;;
52926;SDS011;40783;49.710;8.842;2022-07-29T04:34:35;7.07;;;3.42;;
52926;SDS011;40783;49.710;8.842;2022-07-29T04:39:26;10.23;;;3.92;;
52926;SDS011;40783;49.710;8.842;2022-07-29T04:44:17;6.80;;;3.70;;
52926;SDS011;40783;49.710;8.842;2022-07-29T04:46:42;5.68;;;3.97;;
52926;SDS011;40783;49.710;8.842;2022-07-29T04:49:08;8.68;;;4.47;;
52926;SDS011;40783;49.710;8.842;2022-07-29T04:51:34;11.40;;;4.53;;
52926;SDS011;40783;49.710;8.842;2022-07-29T04:53:59;8.70;;;5.07;;
52926;SDS011;40783;49.710;8.842;2022-07-29T04:58:51;8.38;;;5.10;;
52926;SDS011;40783;49.710;8.842;2022-07-29T05:03:41;7.07;;;3.47;;
52926;SDS011;40783;49.710;8.842;2022-07-29T05:06:07;9.27;;;4.97;;
52926;SDS011;40783;49.710;8.842;2022-07-29T05:08:32;11.00;;;3.15;;
52926;SDS011;40783;49.710;8.842;2022-07-29T05:10:58;10.27;;;4.03;;
52926;SDS011;40783;49.710;8.842;2022-07-29T05:13:23;9.30;;;4.80;;
52926;SDS011;40783;49.710;8.842;2022-07-29T05:15:51;7.32;;;3.75;;
52926;SDS011;40783;49.710;8.842;2022-07-29T05:20:44;8.45;;;4.22;;
52926;SDS011;40783;49.710;8.842;2022-07-29T05:23:09;6.55;;;4.15;;
52926;SDS011;40783;49.710;8.842;2022-07-29T05:25:40;7.65;;;3.67;;
52926;SDS011;40783;49.710;8.842;2022-07-29T05:28:08;8.63;;;4.18;;
52926;SDS011;40783;49.710;8.842;2022-07-29T05:30:33;7.25;;;4.18;;
52926;SDS011;40783;49.710;8.842;2022-07-29T05:35:24;7.57;;;4.07;;
52926;SDS011;40783;49.710;8.842;2022-07-29T05:37:49;7.20;;;3.42;;
52926;SDS011;40783;49.710;8.842;2022-07-29T05:40:15;6.20;;;2.95;;
52926;SDS011;40783;49.710;8.842;2022-07-29T05:42:40;6.05;;;3.13;;
52926;SDS011;40783;49.710;8.842;2022-07-29T05:45:11;8.90;;;4.53;;
52926;SDS011;40783;49.710;8.842;2022-07-29T05:47:36;8.77;;;3.08;;
52926;SDS011;40783;49.710;8.842;2022-07-29T05:52:27;3.08;;;2.63;;
52926;SDS011;40783;49.710;8.842;2022-07-29T05:57:18;6.33;;;3.07;;
52926;SDS011;40783;49.710;8.842;2022-07-29T05:59:45;5.85;;;3.33;;
52926;SDS011;40783;49.710;8.842;2022-07-29T06:04:39;8.10;;;3.35;;
52926;SDS011;40783;49.710;8.842;2022-07-29T06:07:04;10.52;;;2.78;;
52926;SDS011;40783;49.710;8.842;2022-07-29T06:11:55;6.95;;;3.20;;
52926;SDS011;40783;49.710;8.842;2022-07-29T06:14:23;5.57;;;3.47;;
52926;SDS011;40783;49.710;8.842;2022-07-29T06:16:53;5.28;;;2.70;;
52926;SDS011;40783;49.710;8.842;2022-07-29T06:21:48;5.75;;;3.25;;
52926;SDS011;40783;49.710;8.842;2022-07-29T06:26:40;7.03;;;3.10;;
52926;SDS011;40783;49.710;8.842;2022-07-29T06:31:35;4.22;;;2.65;;
52926;SDS011;40783;49.710;8.842;2022-07-29T06:36:26;10.85;;;4.13;;
52926;SDS011;40783;49.710;8.842;2022-07-29T06:41:17;5.57;;;2.80;;
52926;SDS011;40783;49.710;8.842;2022-07-29T06:46:13;4.38;;;2.88;;
52926;SDS011;40783;49.710;8.842;2022-07-29T06:48:43;6.65;;;2.95;;
52926;SDS011;40783;49.710;8.842;2022-07-29T06:51:12;6.38;;;3.40;;
52926;SDS011;40783;49.710;8.842;2022-07-29T06:53:37;4.88;;;3.10;;
52926;SDS011;40783;49.710;8.842;2022-07-29T06:56:04;5.13;;;3.13;;
52926;SDS011;40783;49.710;8.842;2022-07-29T06:58:31;5.68;;;3.53;;
52926;SDS011;40783;49.710;8.842;2022-07-29T07:00:57;3.80;;;2.72;;
52926;SDS011;40783;49.710;8.842;2022-07-29T07:03:23;8.57;;;3.75;;
52926;SDS011;40783;49.710;8.842;2022-07-29T07:05:51;4.72;;;3.05;;
52926;SDS011;40783;49.710;8.842;2022-07-29T07:08:18;7.32;;;2.95;;
52926;SDS011;40783;49.710;8.842;2022-07-29T07:10:44;7.00;;;3.17;;
52926;SDS011;40783;49.710;8.842;2022-07-29T07:13:10;6.35;;;3.45;;
52926;SDS011;40783;49.710;8.842;2022-07-29T07:15:36;6.57;;;3.92;;
52926;SDS011;40783;49.710;8.842;2022-07-29T07:18:02;7.50;;;3.65;;
52926;SDS011;40783;49.710;8.842;2022-07-29T07:20:32;3.72;;;2.42;;
52926;SDS011;40783;49.710;8.842;2022-07-29T07:23:00;7.40;;;2.55;;
52926;SDS011;40783;49.710;8.842;2022-07-29T07:25:26;5.63;;;3.38;;
52926;SDS011;40783;49.710;8.842;2022-07-29T07:27:53;4.93;;;2.85;;
52926;SDS011;40783;49.710;8.842;2022-07-29T07:30:25;4.93;;;3.17;;
52926;SDS011;40783;49.710;8.842;2022-07-29T07:32:51;5.60;;;2.20;;
52926;SDS011;40783;49.710;8.842;2022-07-29T07:35:24;6.47;;;2.83;;
52926;SDS011;40783;49.710;8.842;2022-07-29T07:37:51;8.90;;;3.65;;
52926;SDS011;40783;49.710;8.842;2022-07-29T07:40:16;5.32;;;3.03;;
52926;SDS011;40783;49.710;8.842;2022-07-29T07:42:42;13.30;;;3.08;;
52926;SDS011;40783;49.710;8.842;2022-07-29T07:45:08;5.05;;;2.90;;
52926;SDS011;40783;49.710;8.842;2022-07-29T07:47:39;7.80;;;3.33;;
52926;SDS011;40783;49.710;8.842;2022-07-29T07:50:07;5.53;;;2.70;;
52926;SDS011;40783;49.710;8.842;2022-07-29T07:52:47;3.90;;;2.65;;
52926;SDS011;40783;49.710;8.842;2022-07-29T07:55:14;6.47;;;3.10;;
52926;SDS011;40783;49.710;8.842;2022-07-29T07:57:39;5.38;;;3.15;;
52926;SDS011;40783;49.710;8.842;2022-07-29T08:00:05;5.32;;;3.03;;
52926;SDS011;40783;49.710;8.842;2022-07-29T08:02:31;4.85;;;3.33;;
52926;SDS011;40783;49.710;8.842;2022-07-29T08:04:56;8.68;;;3.22;;
52926;SDS011;40783;49.710;8.842;2022-07-29T08:07:25;8.93;;;3.90;;
52926;SDS011;40783;49.710;8.842;2022-07-29T08:09:51;7.45;;;3.45;;
52926;SDS011;40783;49.710;8.842;2022-07-29T08:12:16;6.63;;;3.05;;
52926;SDS011;40783;49.710;8.842;2022-07-29T08:14:41;4.85;;;2.95;;
52926;SDS011;40783;49.710;8.842;2022-07-29T08:17:07;4.47;;;3.40;;
52926;SDS011;40783;49.710;8.842;2022-07-29T08:19:35;5.10;;;3.15;;
52926;SDS011;40783;49.710;8.842;2022-07-29T08:22:01;4.57;;;3.00;;
52926;SDS011;40783;49.710;8.842;2022-07-29T08:24:27;5.70;;;3.22;;
52926;SDS011;40783;49.710;8.842;2022-07-29T08:27:10;4.57;;;2.78;;
52926;SDS011;40783;49.710;8.842;2022-07-29T08:29:39;4.70;;;3.25;;
52926;SDS011;40783;49.710;8.842;2022-07-29T08:32:05;3.85;;;2.85;;
52926;SDS011;40783;49.710;8.842;2022-07-29T08:34:31;6.78;;;3.85;;
52926;SDS011;40783;49.710;8.842;2022-07-29T08:36:59;6.65;;;3.58;;
52926;SDS011;40783;49.710;8.842;2022-07-29T08:39:31;7.03;;;3.75;;
52926;SDS011;40783;49.710;8.842;2022-07-29T08:41:57;6.80;;;3.60;;
52926;SDS011;40783;49.710;8.842;2022-07-29T08:44:22;5.80;;;3.55;;
52926;SDS011;40783;49.710;8.842;2022-07-29T08:46:48;9.32;;;3.92;;
52926;SDS011;40783;49.710;8.842;2022-07-29T08:49:15;7.40;;;4.22;;
52926;SDS011;40783;49.710;8.842;2022-07-29T08:51:41;4.88;;;2.95;;
52926;SDS011;40783;49.710;8.842;2022-07-29T08:54:08;6.05;;;4.13;;
52926;SDS011;40783;49.710;8.842;2022-07-29T08:56:35;7.53;;;3.42;;
52926;SDS011;40783;49.710;8.842;2022-07-29T08:59:04;7.80;;;3.80;;
52926;SDS011;40783;49.710;8.842;2022-07-29T09:01:32;6.82;;;3.53;;
52926;SDS011;40783;49.710;8.842;2022-07-29T09:03:59;4.55;;;2.65;;
52926;SDS011;40783;49.710;8.842;2022-07-29T09:06:29;5.35;;;3.53;;
52926;SDS011;40783;49.710;8.842;2022-07-29T09:08:58;8.48;;;4.32;;
52926;SDS011;40783;49.710;8.842;2022-07-29T09:11:24;5.10;;;3.25;;
52926;SDS011;40783;49.710;8.842;2022-07-29T09:13:49;5.13;;;3.65;;
52926;SDS011;40783;49.710;8.842;2022-07-29T09:16:15;4.90;;;3.15;;
52926;SDS011;40783;49.710;8.842;2022-07-29T09:18:43;5.05;;;3.22;;
52926;SDS011;40783;49.710;8.842;2022-07-29T09:21:11;8.10;;;3.50;;
52926;SDS011;40783;49.710;8.842;2022-07-29T09:24:06;5.03;;;3.08;;
52926;SDS011;40783;49.710;8.842;2022-07-29T09:26:44;5.40;;;3.88;;
52926;SDS011;40783;49.710;8.842;2022-07-29T09:31:40;11.02;;;3.28;;
52926;SDS011;40783;49.710;8.842;2022-07-29T09:34:07;5.85;;;3.53;;
52926;SDS011;40783;49.710;8.842;2022-07-29T09:36:40;7.13;;;4.00;;
52926;SDS011;40783;49.710;8.842;2022-07-29T09:39:11;5.68;;;4.07;;
52926;SDS011;40783;49.710;8.842;2022-07-29T09:41:49;5.57;;;3.33;;
52926;SDS011;40783;49.710;8.842;2022-07-29T09:44:20;5.90;;;4.05;;
52926;SDS011;40783;49.710;8.842;2022-07-29T09:46:57;7.88;;;4.65;;
52926;SDS011;40783;49.710;8.842;2022-07-29T09:49:27;5.07;;;3.42;;
52926;SDS011;40783;49.710;8.842;2022-07-29T09:52:26;6.93;;;4.25;;
52926;SDS011;40783;49.710;8.842;2022-07-29T09:54:45;5.90;;;3.38;;
52926;SDS011;40783;49.710;8.842;2022-07-29T09:57:21;11.18;;;3.95;;
52926;SDS011;40783;49.710;8.842;2022-07-29T10:00:04;6.72;;;4.07;;
52926;SDS011;40783;49.710;8.842;2022-07-29T10:02:34;8.18;;;4.70;;
52926;SDS011;40783;49.710;8.842;2022-07-29T10:05:04;6.07;;;3.92;;
52926;SDS011;40783;49.710;8.842;2022-07-29T10:10:18;5.72;;;3.97;;
52926;SDS011;40783;49.710;8.842;2022-07-29T10:12:49;6.80;;;4.28;;
52926;SDS011;40783;49.710;8.842;2022-07-29T10:15:20;6.40;;;3.78;;
52926;SDS011;40783;49.710;8.842;2022-07-29T10:17:48;8.57;;;4.10;;
52926;SDS011;40783;49.710;8.842;2022-07-29T10:20:22;9.40;;;4.40;;
52926;SDS011;40783;49.710;8.842;2022-07-29T10:22:51;9.25;;;4.80;;
52926;SDS011;40783;49.710;8.842;2022-07-29T10:25:17;7.82;;;4.38;;
52926;SDS011;40783;49.710;8.842;2022-07-29T10:27:43;9.50;;;4.75;;
52926;SDS011;40783;49.710;8.842;2022-07-29T10:30:13;6.43;;;4.10;;
52926;SDS011;40783;49.710;8.842;2022-07-29T10:42:29;8.73;;;4.13;;
52926;SDS011;40783;49.710;8.842;2022-07-29T10:44:58;8.85;;;4.88;;
52926;SDS011;40783;49.710;8.842;2022-07-29T10:47:24;8.35;;;3.85;;
52926;SDS011;40783;49.710;8.842;2022-07-29T10:50:04;6.30;;;3.90;;
52926;SDS011;40783;49.710;8.842;2022-07-29T11:00:51;6.32;;;3.83;;
52926;SDS011;40783;49.710;8.842;2022-07-29T11:06:05;9.75;;;5.70;;
52926;SDS011;40783;49.710;8.842;2022-07-29T11:08:34;10.23;;;5.53;;
52926;SDS011;40783;49.710;8.842;2022-07-29T11:11:42;7.68;;;4.82;;
52926;SDS011;40783;49.710;8.842;2022-07-29T11:13:50;10.68;;;4.72;;
52926;SDS011;40783;49.710;8.842;2022-07-29T11:16:17;6.63;;;4.63;;
52926;SDS011;40783;49.710;8.842;2022-07-29T11:21:43;7.75;;;5.82;;
52926;SDS011;40783;49.710;8.842;2022-07-29T11:24:16;7.82;;;5.28;;
52926;SDS011;40783;49.710;8.842;2022-07-29T11:26:44;5.68;;;4.70;;
52926;SDS011;40783;49.710;8.842;2022-07-29T11:31:42;9.23;;;5.13;;
52926;SDS011;40783;49.710;8.842;2022-07-29T11:39:37;7.65;;;5.57;;
52926;SDS011;40783;49.710;8.842;2022-07-29T11:47:21;11.40;;;6.53;;
52926;SDS011;40783;49.710;8.842;2022-07-29T11:49:47;8.20;;;5.38;;
52926;SDS011;40783;49.710;8.842;2022-07-29T11:52:13;7.60;;;5.18;;
52926;SDS011;40783;49.710;8.842;2022-07-29T11:54:41;16.08;;;5.75;;
52926;SDS011;40783;49.710;8.842;2022-07-29T11:57:12;8.20;;;4.88;;
52926;SDS011;40783;49.710;8.842;2022-07-29T11:59:41;10.98;;;5.30;;
52926;SDS011;40783;49.710;8.842;2022-07-29T12:02:08;7.95;;;4.57;;
52926;SDS011;40783;49.710;8.842;2022-07-29T12:07:33;7.93;;;5.38;;
52926;SDS011;40783;49.710;8.842;2022-07-29T12:09:59;9.02;;;6.13;;
52926;SDS011;40783;49.710;8.842;2022-07-29T12:12:27;8.95;;;4.68;;
52926;SDS011;40783;49.710;8.842;2022-07-29T12:14:53;8.10;;;5.20;;
52926;SDS011;40783;49.710;8.842;2022-07-29T12:17:30;8.30;;;5.15;;
52926;SDS011;40783;49.710;8.842;2022-07-29T12:20:01;5.93;;;4.68;;
52926;SDS011;40783;49.710;8.842;2022-07-29T12:22:29;8.95;;;4.95;;
52926;SDS011;40783;49.710;8.842;2022-07-29T12:25:01;6.22;;;5.63;;
52926;SDS011;40783;49.710;8.842;2022-07-29T12:27:28;11.82;;;5.57;;
52926;SDS011;40783;49.710;8.842;2022-07-29T12:29:55;6.75;;;5.65;;
52926;SDS011;40783;49.710;8.842;2022-07-29T12:32:30;7.93;;;5.38;;
52926;SDS011;40783;49.710;8.842;2022-07-29T12:34:56;8.52;;;5.05;;
52926;SDS011;40783;49.710;8.842;2022-07-29T12:37:22;5.13;;;3.67;;
52926;SDS011;40783;49.710;8.842;2022-07-29T12:39:49;8.20;;;4.88;;
52926;SDS011;40783;49.710;8.842;2022-07-29T12:42:15;8.55;;;5.18;;
52926;SDS011;40783;49.710;8.842;2022-07-29T12:44:48;8.23;;;5.75;;
52926;SDS011;40783;49.710;8.842;2022-07-29T12:47:17;6.72;;;4.60;;
52926;SDS011;40783;49.710;8.842;2022-07-29T12:49:46;9.02;;;5.43;;
52926;SDS011;40783;49.710;8.842;2022-07-29T12:52:29;6.03;;;4.47;;
52926;SDS011;40783;49.710;8.842;2022-07-29T12:54:58;7.13;;;5.17;;
52926;SDS011;40783;49.710;8.842;2022-07-29T12:57:24;6.28;;;4.82;;
52926;SDS011;40783;49.710;8.842;2022-07-29T13:02:39;7.70;;;5.35;;
52926;SDS011;40783;49.710;8.842;2022-07-29T13:05:08;7.93;;;4.90;;
52926;SDS011;40783;49.710;8.842;2022-07-29T13:07:35;10.43;;;5.47;;
52926;SDS011;40783;49.710;8.842;2022-07-29T13:10:15;7.38;;;4.90;;
52926;SDS011;40783;49.710;8.842;2022-07-29T13:15:30;8.90;;;5.50;;
52926;SDS011;40783;49.710;8.842;2022-07-29T13:17:56;15.80;;;5.40;;
52926;SDS011;40783;49.710;8.842;2022-07-29T13:20:25;8.32;;;5.78;;
52926;SDS011;40783;49.710;8.842;2022-07-29T13:22:54;7.82;;;5.72;;
52926;SDS011;40783;49.710;8.842;2022-07-29T13:25:24;10.48;;;5.20;;
52926;SDS011;40783;49.710;8.842;2022-07-29T13:27:53;9.02;;;5.45;;
52926;SDS011;40783;49.710;8.842;2022-07-29T13:30:19;7.03;;;4.72;;
52926;SDS011;40783;49.710;8.842;2022-07-29T13:32:45;10.23;;;4.93;;
52926;SDS011;40783;49.710;8.842;2022-07-29T13:35:11;7.93;;;5.45;;
52926;SDS011;40783;49.710;8.842;2022-07-29T13:37:37;10.18;;;5.43;;
52926;SDS011;40783;49.710;8.842;2022-07-29T13:40:08;9.93;;;5.60;;
52926;SDS011;40783;49.710;8.842;2022-07-29T13:42:35;7.32;;;5.30;;
52926;SDS011;40783;49.710;8.842;2022-07-29T13:45:03;6.88;;;5.00;;
52926;SDS011;40783;49.710;8.842;2022-07-29T13:47:31;9.82;;;4.43;;
52926;SDS011;40783;49.710;8.842;2022-07-29T13:49:56;6.22;;;4.50;;
52926;SDS011;40783;49.710;8.842;2022-07-29T13:52:24;9.40;;;4.13;;
52926;SDS011;40783;49.710;8.842;2022-07-29T13:54:52;8.52;;;4.45;;
52926;SDS011;40783;49.710;8.842;2022-07-29T13:57:20;7.45;;;5.15;;
52926;SDS011;40783;49.710;8.842;2022-07-29T13:59:48;6.57;;;3.67;;
52926;SDS011;40783;49.710;8.842;2022-07-29T14:02:13;6.75;;;3.97;;
52926;SDS011;40783;49.710;8.842;2022-07-29T14:04:39;6.03;;;4.57;;
52926;SDS011;40783;49.710;8.842;2022-07-29T14:07:06;5.38;;;4.10;;
52926;SDS011;40783;49.710;8.842;2022-07-29T14:09:32;8.48;;;5.03;;
52926;SDS011;40783;49.710;8.842;2022-07-29T14:11:57;7.22;;;3.85;;
52926;SDS011;40783;49.710;8.842;2022-07-29T14:14:23;6.72;;;3.70;;
52926;SDS011;40783;49.710;8.842;2022-07-29T14:16:48;5.32;;;3.33;;
52926;SDS011;40783;49.710;8.842;2022-07-29T14:19:14;5.88;;;3.67;;
52926;SDS011;40783;49.710;8.842;2022-07-29T14:21:39;5.45;;;3.80;;
52926;SDS011;40783;49.710;8.842;2022-07-29T14:24:05;11.23;;;4.30;;
52926;SDS011;40783;49.710;8.842;2022-07-29T14:26:31;6.15;;;3.92;;
52926;SDS011;40783;49.710;8.842;2022-07-29T14:28:57;9.18;;;4.45;;
52926;SDS011;40783;49.710;8.842;2022-07-29T14:31:25;6.50;;;3.58;;
52926;SDS011;40783;49.710;8.842;2022-07-29T14:33:50;6.50;;;4.30;;
52926;SDS011;40783;49.710;8.842;2022-07-29T14:36:16;7.15;;;4.55;;
52926;SDS011;40783;49.710;8.842;2022-07-29T14:38:41;5.55;;;3.92;;
52926;SDS011;40783;49.710;8.842;2022-07-29T14:41:07;9.57;;;4.40;;
52926;SDS011;40783;49.710;8.842;2022-07-29T14:43:33;9.10;;;4.30;;
52926;SDS011;40783;49.710;8.842;2022-07-29T14:46:01;5.35;;;3.28;;
52926;SDS011;40783;49.710;8.842;2022-07-29T14:48:27;18.00;;;4.78;;
52926;SDS011;40783;49.710;8.842;2022-07-29T14:50:58;6.35;;;3.88;;
52926;SDS011;40783;49.710;8.842;2022-07-29T14:53:23;6.07;;;3.45;;
52926;SDS011;40783;49.710;8.842;2022-07-29T14:55:49;9.23;;;4.57;;
52926;SDS011;40783;49.710;8.842;2022-07-29T14:58:14;9.82;;;4.47;;
52926;SDS011;40783;49.710;8.842;2022-07-29T15:00:40;5.63;;;3.70;;
52926;SDS011;40783;49.710;8.842;2022-07-29T15:03:05;9.13;;;4.70;;
52926;SDS011;40783;49.710;8.842;2022-07-29T15:05:33;5.32;;;4.13;;
52926;SDS011;40783;49.710;8.842;2022-07-29T15:08:02;8.52;;;3.90;;
52926;SDS011;40783;49.710;8.842;2022-07-29T15:10:27;10.45;;;4.75;;
52926;SDS011;40783;49.710;8.842;2022-07-29T15:12:53;5.30;;;3.63;;
52926;SDS011;40783;49.710;8.842;2022-07-29T15:15:19;8.32;;;4.43;;
52926;SDS011;40783;49.710;8.842;2022-07-29T15:17:47;6.97;;;4.82;;
52926;SDS011;40783;49.710;8.842;2022-07-29T15:20:12;10.85;;;4.47;;
52926;SDS011;40783;49.710;8.842;2022-07-29T15:22:40;12.90;;;5.05;;
52926;SDS011;40783;49.710;8.842;2022-07-29T15:25:07;10.23;;;5.13;;
52926;SDS011;40783;49.710;8.842;2022-07-29T15:27:33;7.03;;;4.10;;
52926;SDS011;40783;49.710;8.842;2022-07-29T15:29:58;6.72;;;3.90;;
52926;SDS011;40783;49.710;8.842;2022-07-29T15:32:24;7.10;;;4.25;;
52926;SDS011;40783;49.710;8.842;2022-07-29T15:34:49;6.25;;;4.15;;
52926;SDS011;40783;49.710;8.842;2022-07-29T15:37:15;6.32;;;4.07;;
52926;SDS011;40783;49.710;8.842;2022-07-29T15:39:42;6.05;;;4.43;;
52926;SDS011;40783;49.710;8.842;2022-07-29T15:42:08;6.93;;;4.35;;
52926;SDS011;40783;49.710;8.842;2022-07-29T15:44:33;4.93;;;3.38;;
52926;SDS011;40783;49.710;8.842;2022-07-29T15:46:58;6.10;;;4.32;;
52926;SDS011;40783;49.710;8.842;2022-07-29T15:49:33;6.43;;;4.75;;
52926;SDS011;40783;49.710;8.842;2022-07-29T15:52:04;7.20;;;4.28;;
52926;SDS011;40783;49.710;8.842;2022-07-29T15:54:37;5.70;;;4.30;;
52926;SDS011;40783;49.710;8.842;2022-07-29T15:57:05;7.80;;;3.78;;
52926;SDS011;40783;49.710;8.842;2022-07-29T15:59:31;5.82;;;4.18;;
52926;SDS011;40783;49.710;8.842;2022-07-29T16:01:57;6.43;;;3.88;;
52926;SDS011;40783;49.710;8.842;2022-07-29T16:04:23;5.32;;;3.67;;
52926;SDS011;40783;49.710;8.842;2022-07-29T16:06:49;5.82;;;3.88;;
52926;SDS011;40783;49.710;8.842;2022-07-29T16:09:17;8.10;;;5.22;;
52926;SDS011;40783;49.710;8.842;2022-07-29T16:11:47;8.95;;;3.75;;
52926;SDS011;40783;49.710;8.842;2022-07-29T16:14:15;5.82;;;3.88;;
52926;SDS011;40783;49.710;8.842;2022-07-29T16:16:44;21.92;;;4.05;;
52926;SDS011;40783;49.710;8.842;2022-07-29T16:19:09;5.97;;;3.30;;
52926;SDS011;40783;49.710;8.842;2022-07-29T16:21:35;4.88;;;3.50;;
52926;SDS011;40783;49.710;8.842;2022-07-29T16:24:02;5.15;;;3.70;;
52926;SDS011;40783;49.710;8.842;2022-07-29T16:26:28;7.68;;;3.92;;
52926;SDS011;40783;49.710;8.842;2022-07-29T16:28:53;6.80;;;4.30;;
52926;SDS011;40783;49.710;8.842;2022-07-29T16:31:19;10.80;;;3.70;;
52926;SDS011;40783;49.710;8.842;2022-07-29T16:33:48;6.70;;;3.88;;
52926;SDS011;40783;49.710;8.842;2022-07-29T16:36:14;9.30;;;3.80;;
52926;SDS011;40783;49.710;8.842;2022-07-29T16:38:40;11.90;;;5.45;;
52926;SDS011;40783;49.710;8.842;2022-07-29T16:41:06;7.35;;;4.22;;
52926;SDS011;40783;49.710;8.842;2022-07-29T16:43:32;8.50;;;3.95;;
52926;SDS011;40783;49.710;8.842;2022-07-29T16:45:57;6.28;;;4.30;;
52926;SDS011;40783;49.710;8.842;2022-07-29T16:48:23;5.50;;;3.58;;
52926;SDS011;40783;49.710;8.842;2022-07-29T16:50:50;7.78;;;4.03;;
52926;SDS011;40783;49.710;8.842;2022-07-29T16:53:18;6.20;;;4.88;;
52926;SDS011;40783;49.710;8.842;2022-07-29T16:55:44;6.82;;;4.18;;
52926;SDS011;40783;49.710;8.842;2022-07-29T16:58:09;6.85;;;4.25;;
52926;SDS011;40783;49.710;8.842;2022-07-29T17:00:35;6.18;;;4.07;;
52926;SDS011;40783;49.710;8.842;2022-07-29T17:03:01;6.93;;;4.40;;
52926;SDS011;40783;49.710;8.842;2022-07-29T17:05:26;9.07;;;5.07;;
52926;SDS011;40783;49.710;8.842;2022-07-29T17:07:54;9.43;;;4.50;;
52926;SDS011;40783;49.710;8.842;2022-07-29T17:10:20;7.00;;;3.65;;
52926;SDS011;40783;49.710;8.842;2022-07-29T17:12:46;5.22;;;3.85;;
52926;SDS011;40783;49.710;8.842;2022-07-29T17:15:12;6.20;;;4.00;;
52926;SDS011;40783;49.710;8.842;2022-07-29T17:17:37;6.00;;;4.85;;
52926;SDS011;40783;49.710;8.842;2022-07-29T17:20:05;6.00;;;3.50;;
52926;SDS011;40783;49.710;8.842;2022-07-29T17:22:34;8.65;;;4.07;;
52926;SDS011;40783;49.710;8.842;2022-07-29T17:25:05;6.00;;;3.92;;